createdAt,value
2022-12-17T00:01:05.649Z,89.53
2022-12-17T00:04:10.315Z,82.30
2022-12-17T00:07:16.909Z,87.17
2022-12-17T00:10:21.801Z,75.03
2022-12-17T00:13:39.180Z,74.60
2022-12-17T00:16:46.198Z,75.00
2022-12-17T00:19:50.991Z,81.13
2022-12-17T00:22:58.306Z,75.53
2022-12-17T00:26:02.792Z,86.93
2022-12-17T00:29:07.395Z,76.73
2022-12-17T00:32:12.048Z,79.30
2022-12-17T00:35:16.759Z,73.87
2022-12-17T00:38:22.792Z,74.60
2022-12-17T00:41:27.389Z,79.20
2022-12-17T00:44:28.413Z,74.07
2022-12-17T00:47:38.389Z,64.47
2022-12-17T00:50:42.993Z,69.40
2022-12-17T00:53:49.085Z,71.80
2022-12-17T00:56:53.492Z,77.60
2022-12-17T01:00:00.956Z,69.97
2022-12-17T01:03:05.562Z,67.53
2022-12-17T01:06:09.863Z,58.97
2022-12-17T01:09:15.812Z,70.10
2022-12-17T01:12:20.243Z,62.83
2022-12-17T01:15:25.548Z,52.30
2022-12-17T01:18:36.886Z,50.23
2022-12-17T01:21:41.286Z,45.20
2022-12-17T01:24:47.192Z,49.27
2022-12-17T01:27:51.725Z,44.93
2022-12-17T01:30:57.627Z,41.70
2022-12-17T01:34:02.245Z,39.23
2022-12-17T01:37:06.804Z,36.83
2022-12-17T01:40:12.965Z,40.33
2022-12-17T01:43:20.357Z,38.90
2022-12-17T01:46:26.719Z,38.23
2022-12-17T01:49:31.940Z,40.37
2022-12-17T01:52:36.834Z,40.23
2022-12-17T01:55:46.061Z,46.90
2022-12-17T01:58:50.934Z,39.80
2022-12-17T02:01:56.264Z,42.67
2022-12-17T02:05:01.441Z,43.13
2022-12-17T02:08:13.114Z,46.43
2022-12-17T02:11:38.645Z,40.97
2022-12-17T02:14:51.000Z,44.07
2022-12-17T02:18:01.578Z,44.03
2022-12-17T02:21:09.049Z,45.77
2022-12-17T02:24:23.599Z,49.60
2022-12-17T02:27:31.681Z,40.87
2022-12-17T02:30:36.725Z,35.63
2022-12-17T02:33:41.700Z,45.23
2022-12-17T02:36:46.847Z,44.17
2022-12-17T02:39:52.614Z,41.23
2022-12-17T02:43:04.354Z,45.83
2022-12-17T02:46:11.808Z,38.60
2022-12-17T02:49:16.593Z,44.97
2022-12-17T02:52:22.582Z,34.27
2022-12-17T02:55:27.967Z,39.17
2022-12-17T02:58:33.404Z,38.37
2022-12-17T03:01:38.865Z,40.33
2022-12-17T03:04:43.641Z,29.40
2022-12-17T03:07:48.081Z,37.67
2022-12-17T03:10:52.423Z,43.10
2022-12-17T03:14:00.700Z,47.03
2022-12-17T03:17:06.053Z,39.33
2022-12-17T03:20:10.344Z,50.30
2022-12-17T03:23:21.377Z,50.37
2022-12-17T03:26:28.365Z,43.13
2022-12-17T03:29:34.224Z,46.77
2022-12-17T03:32:52.991Z,41.27
2022-12-17T03:35:57.737Z,44.90
2022-12-17T03:39:02.409Z,40.43
2022-12-17T03:42:07.165Z,45.67
2022-12-17T03:45:13.189Z,38.90
2022-12-17T03:48:25.121Z,41.03
2022-12-17T03:51:29.446Z,31.63
2022-12-17T03:54:33.798Z,33.07
2022-12-17T03:57:38.245Z,35.40
2022-12-17T04:00:44.236Z,37.60
2022-12-17T04:03:48.796Z,28.83
2022-12-17T04:06:53.183Z,30.13
2022-12-17T04:09:57.640Z,27.90
2022-12-17T04:13:01.986Z,30.53
2022-12-17T04:16:08.038Z,30.13
2022-12-17T04:19:13.445Z,26.90
2022-12-17T04:22:17.954Z,29.53
2022-12-17T04:25:22.815Z,25.90
2022-12-17T04:28:27.251Z,26.90
2022-12-17T04:31:45.044Z,26.87
2022-12-17T04:34:50.200Z,23.63
2022-12-17T04:37:54.554Z,25.60
2022-12-17T04:40:59.553Z,26.77
2022-12-17T04:44:04.052Z,22.00
2022-12-17T04:47:09.933Z,30.37
2022-12-17T04:50:14.776Z,32.23
2022-12-17T04:53:20.049Z,21.40
2022-12-17T04:56:25.151Z,27.90
2022-12-17T04:59:29.749Z,27.27
2022-12-17T05:02:40.952Z,25.17
2022-12-17T05:05:47.090Z,25.80
2022-12-17T05:08:51.531Z,27.07
2022-12-17T05:11:56.996Z,34.33
2022-12-17T05:15:01.317Z,26.70
2022-12-17T05:18:07.384Z,23.57
2022-12-17T05:21:12.917Z,31.53
2022-12-17T05:24:17.365Z,35.30
2022-12-17T05:27:22.247Z,24.93
2022-12-17T05:30:27.484Z,27.73
2022-12-17T05:33:34.057Z,36.80
2022-12-17T05:36:53.302Z,35.67
2022-12-17T05:39:58.205Z,23.50
2022-12-17T05:43:13.320Z,34.03
2022-12-17T05:46:18.852Z,32.63
2022-12-17T05:49:36.431Z,27.27
2022-12-17T05:52:41.280Z,32.90
2022-12-17T05:55:45.682Z,27.43
2022-12-17T05:58:50.385Z,32.60
2022-12-17T06:01:54.875Z,24.70
2022-12-17T06:05:02.503Z,30.83
2022-12-17T06:08:07.283Z,29.93
2022-12-17T06:11:12.689Z,43.77
2022-12-17T06:14:17.113Z,25.90
2022-12-17T06:17:21.546Z,26.40
2022-12-17T06:20:29.369Z,26.97
2022-12-17T06:23:34.325Z,36.93
2022-12-17T06:26:38.944Z,29.47
2022-12-17T06:29:43.358Z,35.37
2022-12-17T06:32:47.993Z,29.17
2022-12-17T06:35:53.922Z,25.37
2022-12-17T06:38:58.577Z,30.37
2022-12-17T06:42:04.517Z,30.07
2022-12-17T06:45:08.977Z,25.27
2022-12-17T06:48:20.421Z,23.13
2022-12-17T06:51:26.719Z,24.17
2022-12-17T06:54:31.074Z,23.30
2022-12-17T06:57:40.507Z,26.40
2022-12-17T07:00:46.076Z,20.33
2022-12-17T07:03:50.607Z,24.73
2022-12-17T07:06:56.677Z,27.30
2022-12-17T07:10:01.072Z,28.57
2022-12-17T07:13:05.363Z,22.57
2022-12-17T07:16:10.395Z,25.00
2022-12-17T07:19:14.792Z,28.13
2022-12-17T07:22:26.168Z,23.17
2022-12-17T07:25:30.676Z,24.80
2022-12-17T07:28:35.180Z,23.93
2022-12-17T07:31:39.849Z,34.50
2022-12-17T07:34:44.319Z,27.23
2022-12-17T07:37:50.333Z,30.43
2022-12-17T07:40:54.794Z,36.90
2022-12-17T07:43:59.184Z,26.93
2022-12-17T07:47:04.129Z,24.93
2022-12-17T07:50:08.606Z,22.67
2022-12-17T07:53:22.477Z,27.00
2022-12-17T07:56:26.780Z,23.73
2022-12-17T07:59:31.230Z,22.87
2022-12-17T08:02:35.892Z,25.70
2022-12-17T08:05:40.640Z,23.10
2022-12-17T08:08:46.899Z,24.90
2022-12-17T08:11:51.416Z,26.57
2022-12-17T08:14:55.891Z,29.67
2022-12-17T08:18:00.215Z,24.73
2022-12-17T08:21:04.798Z,28.80
2022-12-17T08:24:11.025Z,24.60
2022-12-17T08:27:15.246Z,27.67
2022-12-17T08:30:19.929Z,23.27
2022-12-17T08:33:24.914Z,26.20
2022-12-17T08:36:29.364Z,31.37
2022-12-17T08:39:35.483Z,29.60
2022-12-17T08:42:40.442Z,26.37
2022-12-17T08:45:45.126Z,25.23
2022-12-17T08:48:49.469Z,29.30
2022-12-17T08:51:54.043Z,24.03
2022-12-17T08:55:00.075Z,24.80
2022-12-17T08:58:11.777Z,21.10
2022-12-17T09:01:27.454Z,23.00
2022-12-17T09:04:31.884Z,20.47
2022-12-17T09:07:36.271Z,25.27
2022-12-17T09:10:42.298Z,20.37
2022-12-17T09:13:46.692Z,22.57
2022-12-17T09:16:51.497Z,25.13
2022-12-17T09:19:56.474Z,20.77
2022-12-17T09:23:00.913Z,22.90
2022-12-17T09:26:12.830Z,18.73
2022-12-17T09:29:28.807Z,25.23
2022-12-17T09:32:33.832Z,27.33
2022-12-17T09:35:39.890Z,23.90
2022-12-17T09:38:44.303Z,24.67
2022-12-17T09:42:02.128Z,25.40
2022-12-17T09:45:12.047Z,27.03
2022-12-17T09:48:24.261Z,26.10
2022-12-17T09:51:41.006Z,27.00
2022-12-17T09:54:53.078Z,19.87
2022-12-17T09:58:02.857Z,24.27
2022-12-17T10:01:08.644Z,22.80
2022-12-17T10:04:13.462Z,25.47
2022-12-17T10:07:18.672Z,23.43
2022-12-17T10:10:34.797Z,22.33
2022-12-17T10:13:42.190Z,19.83
2022-12-17T10:16:48.985Z,21.27
2022-12-17T10:19:56.213Z,25.10
2022-12-17T10:23:02.623Z,19.97
2022-12-17T10:26:11.724Z,21.87
2022-12-17T10:29:23.614Z,24.60
2022-12-17T10:32:30.496Z,27.80
2022-12-17T10:35:38.357Z,27.27
2022-12-17T10:38:45.460Z,22.03
2022-12-17T10:41:54.265Z,24.10
2022-12-17T10:45:00.424Z,21.23
2022-12-17T10:48:10.421Z,19.60
2022-12-17T10:51:15.007Z,21.90
2022-12-17T10:54:42.613Z,26.47
2022-12-17T10:57:52.519Z,25.73
2022-12-17T11:01:03.217Z,28.37
2022-12-17T11:04:09.138Z,29.47
2022-12-17T11:07:29.866Z,29.43
2022-12-17T11:10:39.343Z,23.97
2022-12-17T11:13:48.825Z,24.17
2022-12-17T11:16:59.775Z,26.77
2022-12-17T11:20:13.794Z,27.40
2022-12-17T11:23:21.098Z,24.67
2022-12-17T11:26:29.319Z,25.53
2022-12-17T11:29:33.920Z,25.33
2022-12-17T11:32:56.168Z,28.20
2022-12-17T11:36:08.708Z,24.30
2022-12-17T11:39:19.797Z,28.90
2022-12-17T11:42:34.845Z,27.13
2022-12-17T11:45:47.551Z,25.13
2022-12-17T11:48:57.924Z,25.10
2022-12-17T11:52:11.831Z,27.40
2022-12-17T11:55:25.048Z,35.50
2022-12-17T11:58:38.982Z,29.63
2022-12-17T12:01:52.444Z,30.07
2022-12-17T12:05:17.188Z,29.90
2022-12-17T12:08:31.743Z,31.03
2022-12-17T12:11:49.002Z,35.33
2022-12-17T12:15:02.721Z,35.23
2022-12-17T12:18:11.690Z,36.60
2022-12-17T12:21:41.194Z,32.67
2022-12-17T12:25:02.289Z,35.20
2022-12-17T12:28:14.388Z,35.93
2022-12-17T12:31:25.690Z,34.67
2022-12-17T12:34:35.524Z,31.03
2022-12-17T12:37:42.606Z,31.80
2022-12-17T12:40:57.486Z,25.57
2022-12-17T12:44:09.380Z,29.93
2022-12-17T12:47:22.419Z,30.13
2022-12-17T12:50:39.117Z,32.40
2022-12-17T12:54:18.463Z,30.23
2022-12-17T12:57:23.384Z,26.97
2022-12-17T13:00:45.168Z,30.60
2022-12-17T13:03:51.994Z,31.13
2022-12-17T13:06:45.551Z,35.27
2022-12-17T13:09:42.201Z,34.70
2022-12-17T13:12:33.612Z,27.60
2022-12-17T13:15:31.590Z,33.23
2022-12-17T13:18:25.249Z,27.97
2022-12-17T13:21:27.339Z,24.00
2022-12-17T13:24:25.277Z,34.20
2022-12-17T13:27:31.186Z,32.63
2022-12-17T13:30:35.341Z,28.63
2022-12-17T13:33:30.790Z,30.03
2022-12-17T13:36:25.292Z,28.63
2022-12-17T13:39:24.359Z,31.53
2022-12-17T13:42:21.225Z,30.13
2022-12-17T13:45:16.801Z,33.23
2022-12-17T13:48:04.245Z,32.53
2022-12-17T13:50:56.215Z,29.13
2022-12-17T13:53:53.222Z,33.63
2022-12-17T13:56:41.547Z,30.30
2022-12-17T13:59:29.879Z,35.60
2022-12-17T14:02:27.123Z,30.83
2022-12-17T14:05:25.339Z,33.60
2022-12-17T14:08:17.641Z,36.63
2022-12-17T14:11:23.240Z,32.40
2022-12-17T14:14:20.936Z,32.97
2022-12-17T14:17:15.923Z,33.53
2022-12-17T14:20:08.335Z,34.40
2022-12-17T14:22:57.641Z,34.40
2022-12-17T14:25:45.711Z,32.30
2022-12-17T14:28:36.005Z,39.47
2022-12-17T14:31:27.226Z,37.80
2022-12-17T14:34:15.393Z,31.67
2022-12-17T14:37:03.837Z,36.73
2022-12-17T14:39:51.724Z,35.77
2022-12-17T14:42:40.322Z,34.60
2022-12-17T14:45:29.379Z,34.80
2022-12-17T14:48:17.085Z,29.93
2022-12-17T14:51:04.433Z,32.87
2022-12-17T14:53:52.871Z,38.60
2022-12-17T14:56:40.659Z,30.23
2022-12-17T14:59:41.080Z,29.57
2022-12-17T15:02:31.434Z,33.50
2022-12-17T15:05:19.251Z,34.83
2022-12-17T15:08:06.677Z,36.23
2022-12-17T15:10:57.694Z,35.63
2022-12-17T15:13:45.237Z,30.20
2022-12-17T15:16:32.824Z,29.57
2022-12-17T15:19:22.630Z,32.07
2022-12-17T15:22:15.537Z,29.03
2022-12-17T15:25:03.005Z,29.33
2022-12-17T15:27:51.772Z,27.80
2022-12-17T15:30:40.123Z,27.37
2022-12-17T15:33:27.665Z,34.13
2022-12-17T15:36:15.048Z,32.93
2022-12-17T15:39:02.329Z,36.23
2022-12-17T15:42:07.112Z,33.07
2022-12-17T15:44:55.633Z,33.90
2022-12-17T15:47:42.972Z,31.90
2022-12-17T15:50:30.355Z,31.73
2022-12-17T15:53:17.824Z,38.90
2022-12-17T15:56:05.808Z,28.67
2022-12-17T15:58:53.457Z,36.53
2022-12-17T16:01:42.116Z,25.00
2022-12-17T16:04:29.895Z,33.53
2022-12-17T16:07:17.379Z,32.73
2022-12-17T16:10:05.824Z,31.33
2022-12-17T16:12:53.084Z,34.50
2022-12-17T16:15:40.630Z,31.87
2022-12-17T16:18:29.266Z,33.03
2022-12-17T16:21:16.403Z,35.47
2022-12-17T16:24:03.771Z,29.17
2022-12-17T16:26:50.965Z,35.57
2022-12-17T16:29:38.297Z,33.67
2022-12-17T16:32:25.513Z,32.87
2022-12-17T16:35:14.354Z,34.53
2022-12-17T16:38:01.653Z,40.30
2022-12-17T16:40:49.205Z,40.50
2022-12-17T16:43:36.394Z,31.73
2022-12-17T16:46:27.204Z,37.63
2022-12-17T16:49:16.371Z,30.73
2022-12-17T16:52:05.670Z,40.07
2022-12-17T16:54:53.125Z,31.13
2022-12-17T16:57:40.638Z,29.33
2022-12-17T17:00:27.958Z,26.57
2022-12-17T17:03:19.628Z,26.40
2022-12-17T17:06:07.765Z,28.03
2022-12-17T17:08:56.423Z,29.00
2022-12-17T17:11:46.996Z,24.83
2022-12-17T17:14:38.256Z,35.57
2022-12-17T17:17:54.219Z,27.97
2022-12-17T17:20:32.993Z,25.93
2022-12-17T17:23:20.214Z,24.53
2022-12-17T17:26:09.572Z,31.60
2022-12-17T17:28:57.389Z,31.13
2022-12-17T17:34:52.094Z,32.67
2022-12-17T17:37:39.567Z,34.13
2022-12-17T17:40:26.903Z,28.97
2022-12-17T17:43:15.297Z,36.60
2022-12-17T17:46:07.850Z,31.43
2022-12-17T17:48:57.746Z,37.83
2022-12-17T17:52:08.979Z,36.27
2022-12-17T17:54:53.156Z,26.43
2022-12-17T17:57:40.528Z,27.60
2022-12-17T18:00:29.557Z,29.90
2022-12-17T18:03:17.040Z,24.77
2022-12-17T18:06:05.241Z,28.47
2022-12-17T18:08:52.836Z,19.87
2022-12-17T18:11:42.053Z,32.00
2022-12-17T18:14:30.164Z,49.37
2022-12-17T18:17:19.180Z,31.77
2022-12-17T18:20:09.466Z,24.23
2022-12-17T18:22:56.970Z,17.90
2022-12-17T18:25:44.360Z,41.33
2022-12-17T18:28:31.781Z,30.27
2022-12-17T18:31:21.179Z,35.20
2022-12-17T18:34:11.837Z,32.73
2022-12-17T18:36:59.074Z,30.70
2022-12-17T18:39:47.301Z,36.23
2022-12-17T18:42:51.819Z,25.47
2022-12-17T18:45:39.007Z,33.37
2022-12-17T18:48:26.494Z,18.97
2022-12-17T18:51:15.237Z,22.27
2022-12-17T18:54:04.641Z,19.03
2022-12-17T18:57:00.928Z,24.40
2022-12-17T18:59:49.590Z,25.77
2022-12-17T19:02:36.831Z,30.50
2022-12-17T19:05:24.389Z,21.53
2022-12-17T19:08:13.044Z,24.20
2022-12-17T19:11:05.204Z,27.97
2022-12-17T19:13:52.539Z,23.77
2022-12-17T19:16:40.089Z,23.17
2022-12-17T19:19:27.688Z,23.77
2022-12-17T19:22:15.164Z,36.97
2022-12-17T19:25:04.136Z,27.43
2022-12-17T19:27:51.641Z,27.73
2022-12-17T19:30:39.166Z,22.43
2022-12-17T19:33:26.739Z,16.50
2022-12-17T19:36:16.345Z,32.63
2022-12-17T19:39:06.612Z,24.87
2022-12-17T19:41:55.255Z,15.60
2022-12-17T19:44:42.443Z,21.73
2022-12-17T19:47:30.549Z,22.60
2022-12-17T19:50:17.853Z,26.73
2022-12-17T19:53:05.277Z,23.90
2022-12-17T19:55:52.436Z,24.70
2022-12-17T19:58:42.123Z,17.23
2022-12-17T20:01:31.997Z,21.50
2022-12-17T20:04:19.632Z,24.70
2022-12-17T20:07:07.032Z,18.23
2022-12-17T20:09:54.473Z,15.47
2022-12-17T20:12:41.953Z,22.60
2022-12-17T20:15:31.268Z,16.43
2022-12-17T20:18:19.013Z,20.03
2022-12-17T20:21:07.422Z,22.90
2022-12-17T20:23:54.733Z,17.30
2022-12-17T20:26:42.826Z,26.00
2022-12-17T20:29:30.578Z,18.63
2022-12-17T20:32:21.130Z,23.37
2022-12-17T20:35:09.419Z,22.90
2022-12-17T20:37:56.824Z,19.60
2022-12-17T20:40:44.330Z,27.03
2022-12-17T20:43:31.885Z,26.93
2022-12-17T20:46:21.574Z,21.77
2022-12-17T20:49:12.549Z,21.73
2022-12-17T20:52:00.049Z,19.37
2022-12-17T20:54:47.701Z,18.77
2022-12-17T20:57:35.105Z,24.60
2022-12-17T21:00:22.524Z,24.97
2022-12-17T21:03:10.559Z,24.50
2022-12-17T21:06:05.949Z,20.63
2022-12-17T21:08:55.175Z,22.27
2022-12-17T21:11:43.482Z,18.63
2022-12-17T21:14:35.519Z,26.17
2022-12-17T21:17:23.166Z,16.23
2022-12-17T21:20:12.318Z,22.63
2022-12-17T21:23:01.111Z,19.73
2022-12-17T21:25:48.505Z,28.03
2022-12-17T21:28:37.838Z,22.40
2022-12-17T21:31:27.187Z,21.83
2022-12-17T21:34:17.342Z,20.60
2022-12-17T21:37:05.009Z,24.77
2022-12-17T21:40:00.033Z,25.83
2022-12-17T21:43:02.524Z,22.07
2022-12-17T21:45:49.888Z,23.00
2022-12-17T21:48:42.244Z,22.93
2022-12-17T21:51:30.481Z,22.13
2022-12-17T21:54:19.926Z,20.70
2022-12-17T21:57:08.932Z,24.07
2022-12-17T21:59:56.258Z,27.80
2022-12-17T22:02:44.103Z,24.13
2022-12-17T22:05:31.470Z,21.80
2022-12-17T22:08:19.434Z,23.83
2022-12-17T22:11:11.100Z,24.43
2022-12-17T22:14:09.552Z,19.77
2022-12-17T22:16:58.668Z,24.30
2022-12-17T22:19:46.293Z,20.67
2022-12-17T22:22:33.613Z,23.37
2022-12-17T22:25:20.765Z,23.20
2022-12-17T22:28:08.129Z,24.97
2022-12-17T22:31:14.442Z,24.37
2022-12-17T22:35:34.519Z,21.40
2022-12-17T22:40:51.062Z,27.70
2022-12-17T22:44:29.535Z,20.40
2022-12-17T22:44:43.848Z,19.90
2022-12-17T22:46:39.713Z,20.30
2022-12-17T22:49:26.997Z,23.67
2022-12-17T22:52:14.246Z,20.17
2022-12-17T22:55:04.083Z,23.90
2022-12-17T22:57:51.733Z,26.10
2022-12-17T23:00:39.161Z,24.57
2022-12-17T23:03:28.329Z,27.63
2022-12-17T23:06:17.577Z,23.73
2022-12-17T23:09:04.804Z,21.13
2022-12-17T23:11:52.287Z,27.73
2022-12-17T23:14:39.629Z,20.10
2022-12-17T23:17:26.672Z,25.83
2022-12-17T23:20:15.912Z,22.83
2022-12-17T23:23:03.413Z,23.57
2022-12-17T23:25:50.785Z,25.67
2022-12-17T23:28:39.506Z,19.90
2022-12-17T23:31:28.635Z,25.53
2022-12-17T23:34:16.468Z,23.57
2022-12-17T23:37:05.006Z,24.40
2022-12-17T23:39:52.313Z,18.43
2022-12-17T23:42:40.025Z,27.60
2022-12-17T23:45:28.460Z,23.87
2022-12-17T23:48:15.788Z,24.93
2022-12-17T23:51:03.653Z,15.43
2022-12-17T23:53:52.285Z,25.40
2022-12-17T23:56:39.743Z,18.17
2022-12-17T23:59:27.854Z,20.73
